Flemington, West Virginia
Current Conditions -  °F | °C
As of 7:53 PM on Wednesday 22 Oct 2014 (Local Time) from KCKB Reporting Station
Overcast Overcast  
Wind Chill: 46°   Ceiling: 2000
Heat Index: 48°   Visibility: 10mi
Dew Point: 42°   Wind: 5mph
Humidity: 80%   Direction: 330°NNW
Pressure: 30.17"   Gusts: NA
Location:  39.27°N, 80.13°W
Report Text: KCKB 222353Z 33004KT 10SM OVC020 09/06 A3017 RMK AO2 SLP214 60000 T00890056 10094 20089 53002
Loading
Personal Weather Stations






























Interactive Weather Map
Tropical Storm Tracking
New forecast layout! Learn more

10-Day Weather Forecast

Advertisements
Track Severe Weather on mobile